^^
Station Historical Data
Daily Summary for June 9, 2017 Units:  Both    English   Metric
« Previous Day
Next Day »
Daily Weekly Monthly Yearly Custom
  High: Low: Average:
Temperature: 72.1 °F /  22.3 °C 40.6 °F /  4.8 °C 55.6 °F /  13.1 °C
Dew Point: 32.7 °F /  0.4 °C 22.5 °F /  -5.3 °C 28 °F /  -2.2 °C
Humidity: 52% 21% 36%
Wind Speed: 11.0mph /  17.7km/h - 1.4mph /  2.3km/h
Wind Gust: 17.0mph /  27.4km/h - -
Wind- - SW
Pressure: 30.43 in /  1030.4 hPa 30.26 in /  1024.6 hPa -
Precipitation: 0.00 in /  0 mm    
Historical Graphs
 
 
Tabular Data for June 9, 2017
Time Temperature Dew Point Pressure Wind Wind Speed Wind Gust Humidity Rainfall Rate (Hourly) solar Conditions
00:03 45.7 °F /  7.6 °C 25.0 °F /  -3.9 °C 30.41in /  1029.7hPa Calm     44% 0.00in /  0mm 0.0 W/m2
00:09 45.1 °F /  7.3 °C 25.0 °F /  -3.9 °C 30.41in /  1029.7hPa Calm     45% 0.00in /  0mm 0.0 W/m2
00:16 44.8 °F /  7.1 °C 25.3 °F /  -3.7 °C 30.41in /  1029.7hPa Calm     46% 0.00in /  0mm 0.0 W/m2
00:22 44.4 °F /  6.9 °C 25.0 °F /  -3.9 °C 30.41in /  1029.7hPa Calm     46% 0.00in /  0mm 0.0 W/m2
00:28 44.2 °F /  6.8 °C 24.8 °F /  -4 °C 30.41in /  1029.7hPa Calm   2.0mph /  3.2km/h 46% 0.00in /  0mm 0.0 W/m2
00:34 44.4 °F /  6.9 °C 24.4 °F /  -4.2 °C 30.41in /  1029.7hPa Calm     45% 0.00in /  0mm 0.0 W/m2
00:40 44.8 °F /  7.1 °C 24.8 °F /  -4 °C 30.41in /  1029.7hPa Calm     45% 0.00in /  0mm 0.0 W/m2
00:46 44.8 °F /  7.1 °C 24.8 °F /  -4 °C 30.40in /  1029.3hPa Calm     45% 0.00in /  0mm 0.0 W/m2
00:53 44.8 °F /  7.1 °C 24.8 °F /  -4 °C 30.41in /  1029.7hPa Calm     45% 0.00in /  0mm 0.0 W/m2
00:59 44.8 °F /  7.1 °C 25.3 °F /  -3.7 °C 30.41in /  1029.7hPa Calm     46% 0.00in /  0mm 0.0 W/m2
01:05 44.4 °F /  6.9 °C 25.0 °F /  -3.9 °C 30.41in /  1029.7hPa Calm     46% 0.00in /  0mm 0.0 W/m2
01:11 44.2 °F /  6.8 °C 25.3 °F /  -3.7 °C 30.40in /  1029.3hPa Calm     47% 0.00in /  0mm 0.0 W/m2
01:17 44.1 °F /  6.7 °C 25.2 °F /  -3.8 °C 30.40in /  1029.3hPa Calm     47% 0.00in /  0mm 0.0 W/m2
01:23 43.7 °F /  6.5 °C 24.3 °F /  -4.3 °C 30.39in /  1029hPa Calm     46% 0.00in /  0mm 0.0 W/m2
01:29 43.9 °F /  6.6 °C 24.4 °F /  -4.2 °C 30.38in /  1028.7hPa Calm   1.0mph /  1.6km/h 46% 0.00in /  0mm 0.0 W/m2
01:36 44.2 °F /  6.8 °C 24.3 °F /  -4.3 °C 30.38in /  1028.7hPa East 0.9mph /  1.4km/h 2.0mph /  3.2km/h 45% 0.00in /  0mm 0.0 W/m2
01:42 44.8 °F /  7.1 °C 24.3 °F /  -4.3 °C 30.38in /  1028.7hPa Calm     44% 0.00in /  0mm 0.0 W/m2
01:48 45.3 °F /  7.4 °C 24.1 °F /  -4.4 °C 30.38in /  1028.7hPa Calm   6.0mph /  9.7km/h 43% 0.00in /  0mm 0.0 W/m2
01:54 46.2 °F /  7.9 °C 24.4 °F /  -4.2 °C 30.38in /  1028.7hPa Calm   2.0mph /  3.2km/h 42% 0.00in /  0mm 0.0 W/m2
02:00 46.8 °F /  8.2 °C 23.7 °F /  -4.6 °C 30.38in /  1028.7hPa Calm   2.0mph /  3.2km/h 40% 0.00in /  0mm 0.0 W/m2
02:06 47.1 °F /  8.4 °C 24.1 °F /  -4.4 °C 30.38in /  1028.7hPa Calm   3.0mph /  4.8km/h 40% 0.00in /  0mm 0.0 W/m2
02:13 47.3 °F /  8.5 °C 24.8 °F /  -4 °C 30.38in /  1028.7hPa Calm     41% 0.00in /  0mm 0.0 W/m2
02:19 47.1 °F /  8.4 °C 24.1 °F /  -4.4 °C 30.38in /  1028.7hPa Calm     40% 0.00in /  0mm 0.0 W/m2
02:25 46.8 °F /  8.2 °C 24.3 °F /  -4.3 °C 30.38in /  1028.7hPa Calm     41% 0.00in /  0mm 0.0 W/m2
02:31 46.6 °F /  8.1 °C 24.1 °F /  -4.4 °C 30.38in /  1028.7hPa Calm   1.0mph /  1.6km/h 41% 0.00in /  0mm 0.0 W/m2
02:37 46.2 °F /  7.9 °C 23.9 °F /  -4.5 °C 30.38in /  1028.7hPa Calm     41% 0.00in /  0mm 0.0 W/m2
02:43 46.0 °F /  7.8 °C 24.3 °F /  -4.3 °C 30.38in /  1028.7hPa Calm     42% 0.00in /  0mm 0.0 W/m2
02:49 45.7 °F /  7.6 °C 23.9 °F /  -4.5 °C 30.38in /  1028.7hPa Calm   1.0mph /  1.6km/h 42% 0.00in /  0mm 0.0 W/m2
02:56 45.5 °F /  7.5 °C 23.7 °F /  -4.6 °C 30.38in /  1028.7hPa Calm     42% 0.00in /  0mm 0.0 W/m2
03:02 45.1 °F /  7.3 °C 23.4 °F /  -4.8 °C 30.38in /  1028.7hPa Calm     42% 0.00in /  0mm 0.0 W/m2
03:08 44.8 °F /  7.1 °C 23.7 °F /  -4.6 °C 30.38in /  1028.7hPa Calm     43% 0.00in /  0mm 0.0 W/m2
03:14 44.4 °F /  6.9 °C 23.4 °F /  -4.8 °C 30.38in /  1028.7hPa Calm     43% 0.00in /  0mm 0.0 W/m2
03:20 44.1 °F /  6.7 °C 23.5 °F /  -4.7 °C 30.38in /  1028.7hPa Calm     44% 0.00in /  0mm 0.0 W/m2
03:26 43.7 °F /  6.5 °C 23.7 °F /  -4.6 °C 30.38in /  1028.7hPa Calm   1.0mph /  1.6km/h 45% 0.00in /  0mm 0.0 W/m2
03:32 43.3 °F /  6.3 °C 23.4 °F /  -4.8 °C 30.38in /  1028.7hPa Calm     45% 0.00in /  0mm 0.0 W/m2
03:39 43.2 °F /  6.2 °C 23.7 °F /  -4.6 °C 30.38in /  1028.7hPa Calm   3.0mph /  4.8km/h 46% 0.00in /  0mm 0.0 W/m2
03:45 43.2 °F /  6.2 °C 23.7 °F /  -4.6 °C 30.38in /  1028.7hPa Calm     46% 0.00in /  0mm 0.0 W/m2
03:51 43.0 °F /  6.1 °C 23.5 °F /  -4.7 °C 30.38in /  1028.7hPa Calm   1.0mph /  1.6km/h 46% 0.00in /  0mm 0.0 W/m2
03:57 42.6 °F /  5.9 °C 23.4 °F /  -4.8 °C 30.38in /  1028.7hPa Calm     46% 0.00in /  0mm 0.0 W/m2
04:03 42.6 °F /  5.9 °C 23.4 °F /  -4.8 °C 30.38in /  1028.7hPa Calm   3.0mph /  4.8km/h 46% 0.00in /  0mm 0.0 W/m2
04:09 42.4 °F /  5.8 °C 23.2 °F /  -4.9 °C 30.38in /  1028.7hPa Calm     46% 0.00in /  0mm 0.0 W/m2
04:15 42.4 °F /  5.8 °C 23.2 °F /  -4.9 °C 30.38in /  1028.7hPa Calm     46% 0.00in /  0mm 0.0 W/m2
04:22 42.3 °F /  5.7 °C 23.0 °F /  -5 °C 30.38in /  1028.7hPa Calm     46% 0.00in /  0mm 0.0 W/m2
04:28 42.3 °F /  5.7 °C 23.0 °F /  -5 °C 30.38in /  1028.7hPa Calm   3.0mph /  4.8km/h 46% 0.00in /  0mm 0.0 W/m2
04:34 42.4 °F /  5.8 °C 23.2 °F /  -4.9 °C 30.39in /  1029hPa Calm   2.0mph /  3.2km/h 46% 0.00in /  0mm 0.0 W/m2
04:40 42.4 °F /  5.8 °C 23.2 °F /  -4.9 °C 30.39in /  1029hPa Calm     46% 0.00in /  0mm 0.0 W/m2
04:46 42.4 °F /  5.8 °C 23.2 °F /  -4.9 °C 30.39in /  1029hPa Calm   3.0mph /  4.8km/h 46% 0.00in /  0mm 0.0 W/m2
04:52 42.4 °F /  5.8 °C 23.2 °F /  -4.9 °C 30.39in /  1029hPa Calm   1.0mph /  1.6km/h 46% 0.00in /  0mm 0.0 W/m2
04:58 42.6 °F /  5.9 °C 22.8 °F /  -5.1 °C 30.39in /  1029hPa NNE 0.9mph /  1.4km/h 4.0mph /  6.4km/h 45% 0.00in /  0mm 0.0 W/m2
05:05 42.8 °F /  6 °C 23.0 °F /  -5 °C 30.39in /  1029hPa Calm   1.0mph /  1.6km/h 45% 0.00in /  0mm 0.0 W/m2
05:11 43.0 °F /  6.1 °C 23.2 °F /  -4.9 °C 30.39in /  1029hPa Calm   1.0mph /  1.6km/h 45% 0.00in /  0mm 0.0 W/m2
05:17 43.0 °F /  6.1 °C 23.2 °F /  -4.9 °C 30.39in /  1029hPa Calm   3.0mph /  4.8km/h 45% 0.00in /  0mm 0.0 W/m2
05:23 43.0 °F /  6.1 °C 23.2 °F /  -4.9 °C 30.39in /  1029hPa Calm     45% 0.00in /  0mm 0.0 W/m2
05:29 42.8 °F /  6 °C 23.0 °F /  -5 °C 30.39in /  1029hPa Calm     45% 0.00in /  0mm 0.0 W/m2
05:35 42.6 °F /  5.9 °C 22.8 °F /  -5.1 °C 30.39in /  1029hPa Calm   2.0mph /  3.2km/h 45% 0.00in /  0mm 0.0 W/m2
05:41 42.3 °F /  5.7 °C 23.0 °F /  -5 °C 30.39in /  1029hPa Calm     46% 0.00in /  0mm 0.0 W/m2
05:48 42.1 °F /  5.6 °C 22.8 °F /  -5.1 °C 30.39in /  1029hPa East 0.9mph /  1.4km/h 1.0mph /  1.6km/h 46% 0.00in /  0mm 0.0 W/m2
05:54 41.7 °F /  5.4 °C 22.5 °F /  -5.3 °C 30.39in /  1029hPa Calm     46% 0.00in /  0mm 0.0 W/m2
06:00 41.7 °F /  5.4 °C 23.0 °F /  -5 °C 30.39in /  1029hPa Calm     47% 0.00in /  0mm 0.0 W/m2
06:06 41.5 °F /  5.3 °C 22.8 °F /  -5.1 °C 30.39in /  1029hPa Calm   1.0mph /  1.6km/h 47% 0.00in /  0mm 0.0 W/m2
06:12 41.7 °F /  5.4 °C 23.0 °F /  -5 °C 30.39in /  1029hPa Calm     47% 0.00in /  0mm 0.0 W/m2
06:18 41.5 °F /  5.3 °C 22.8 °F /  -5.1 °C 30.40in /  1029.3hPa Calm   1.0mph /  1.6km/h 47% 0.00in /  0mm 0.0 W/m2
06:20 41.5 °F /  5.3 °C 22.8 °F /  -5.1 °C 30.40in /  1029.3hPa Calm     47% 0.00in /  0mm 0.0 W/m2
06:26 41.4 °F /  5.2 °C 23.2 °F /  -4.9 °C 30.40in /  1029.3hPa Calm     48% 0.00in /  0mm 0.0 W/m2
06:33 41.2 °F /  5.1 °C 23.0 °F /  -5 °C 30.40in /  1029.3hPa Calm     48% 0.00in /  0mm 5.0 W/m2
06:39 41.0 °F /  5 °C 23.4 °F /  -4.8 °C 30.40in /  1029.3hPa Calm     49% 0.00in /  0mm 7.0 W/m2
06:45 40.8 °F /  4.9 °C 23.2 °F /  -4.9 °C 30.41in /  1029.7hPa Calm   1.0mph /  1.6km/h 49% 0.00in /  0mm 11.0 W/m2
06:51 40.6 °F /  4.8 °C 23.5 °F /  -4.7 °C 30.41in /  1029.7hPa Calm     50% 0.00in /  0mm 12.0 W/m2
06:57 40.6 °F /  4.8 °C 23.5 °F /  -4.7 °C 30.41in /  1029.7hPa Calm     50% 0.00in /  0mm 14.0 W/m2
07:04 40.8 °F /  4.9 °C 24.1 °F /  -4.4 °C 30.41in /  1029.7hPa Calm     51% 0.00in /  0mm 14.0 W/m2
07:10 40.8 °F /  4.9 °C 24.1 °F /  -4.4 °C 30.41in /  1029.7hPa Calm     51% 0.00in /  0mm 16.0 W/m2
07:16 41.4 °F /  5.2 °C 24.6 °F /  -4.1 °C 30.41in /  1029.7hPa Calm   1.0mph /  1.6km/h 51% 0.00in /  0mm 18.0 W/m2
07:22 41.9 °F /  5.5 °C 25.2 °F /  -3.8 °C 30.41in /  1029.7hPa Calm     51% 0.00in /  0mm 19.0 W/m2
07:28 42.4 °F /  5.8 °C 25.5 °F /  -3.6 °C 30.41in /  1029.7hPa Calm   1.0mph /  1.6km/h 51% 0.00in /  0mm 21.0 W/m2
07:34 43.0 °F /  6.1 °C 26.1 °F /  -3.3 °C 30.41in /  1029.7hPa Calm     51% 0.00in /  0mm 21.0 W/m2
07:40 43.3 °F /  6.3 °C 26.4 °F /  -3.1 °C 30.41in /  1029.7hPa Calm     51% 0.00in /  0mm 23.0 W/m2
07:47 44.1 °F /  6.7 °C 26.6 °F /  -3 °C 30.42in /  1030hPa Calm   1.0mph /  1.6km/h 50% 0.00in /  0mm 25.0 W/m2
07:53 45.9 °F /  7.7 °C 27.9 °F /  -2.3 °C 30.42in /  1030hPa Calm     49% 0.00in /  0mm 54.0 W/m2
07:59 48.0 °F /  8.9 °C 28.2 °F /  -2.1 °C 30.42in /  1030hPa Calm     46% 0.00in /  0mm 274.0 W/m2
08:05 50.7 °F /  10.4 °C 29.1 °F /  -1.6 °C 30.42in /  1030hPa Calm     43% 0.00in /  0mm 302.0 W/m2
08:11 53.1 °F /  11.7 °C 30.0 °F /  -1.1 °C 30.42in /  1030hPa Calm   2.0mph /  3.2km/h 41% 0.00in /  0mm 325.0 W/m2
08:17 54.9 °F /  12.7 °C 29.1 °F /  -1.6 °C 30.42in /  1030hPa Calm     37% 0.00in /  0mm 343.0 W/m2
08:23 56.3 °F /  13.5 °C 28.9 °F /  -1.7 °C 30.42in /  1030hPa Calm     35% 0.00in /  0mm 362.0 W/m2
08:30 57.2 °F /  14 °C 28.4 °F /  -2 °C 30.42in /  1030hPa Calm     33% 0.00in /  0mm 381.0 W/m2
08:36 57.9 °F /  14.4 °C 28.2 °F /  -2.1 °C 30.43in /  1030.4hPa Calm     32% 0.00in /  0mm 399.0 W/m2
08:42 59.2 °F /  15.1 °C 29.3 °F /  -1.5 °C 30.42in /  1030hPa Calm     32% 0.00in /  0mm 420.0 W/m2
08:48 59.7 °F /  15.4 °C 28.2 °F /  -2.1 °C 30.42in /  1030hPa Calm     30% 0.00in /  0mm 439.0 W/m2
08:54 60.4 °F /  15.8 °C 28.9 °F /  -1.7 °C 30.42in /  1030hPa Calm     30% 0.00in /  0mm 455.0 W/m2
09:00 61.7 °F /  16.5 °C 30.0 °F /  -1.1 °C 30.42in /  1030hPa Calm     30% 0.00in /  0mm 473.0 W/m2
09:06 62.4 °F /  16.9 °C 30.6 °F /  -0.8 °C 30.42in /  1030hPa Calm     30% 0.00in /  0mm 487.0 W/m2
09:12 62.6 °F /  17 °C 29.1 °F /  -1.6 °C 30.42in /  1030hPa Calm     28% 0.00in /  0mm 506.0 W/m2
09:19 63.1 °F /  17.3 °C 29.5 °F /  -1.4 °C 30.42in /  1030hPa Calm     28% 0.00in /  0mm 520.0 W/m2
09:25 63.9 °F /  17.7 °C 29.3 °F /  -1.5 °C 30.42in /  1030hPa Calm   1.0mph /  1.6km/h 27% 0.00in /  0mm 533.0 W/m2
09:31 64.0 °F /  17.8 °C 30.2 °F /  -1 °C 30.42in /  1030hPa NNW 0.9mph /  1.4km/h 2.0mph /  3.2km/h 28% 0.00in /  0mm 547.0 W/m2
09:37 64.6 °F /  18.1 °C 30.7 °F /  -0.7 °C 30.42in /  1030hPa Calm   2.0mph /  3.2km/h 28% 0.00in /  0mm 559.0 W/m2
09:43 64.6 °F /  18.1 °C 29.8 °F /  -1.2 °C 30.42in /  1030hPa Calm   4.0mph /  6.4km/h 27% 0.00in /  0mm 573.0 W/m2
09:49 64.9 °F /  18.3 °C 31.1 °F /  -0.5 °C 30.41in /  1029.7hPa Calm   2.0mph /  3.2km/h 28% 0.00in /  0mm 587.0 W/m2
09:55 65.7 °F /  18.7 °C 30.7 °F /  -0.7 °C 30.41in /  1029.7hPa NNE 0.9mph /  1.4km/h 6.0mph /  9.7km/h 27% 0.00in /  0mm 598.0 W/m2
10:02 66.6 °F /  19.2 °C 31.5 °F /  -0.3 °C 30.41in /  1029.7hPa Calm   1.0mph /  1.6km/h 27% 0.00in /  0mm 608.0 W/m2
10:08 67.1 °F /  19.5 °C 31.1 °F /  -0.5 °C 30.40in /  1029.3hPa Calm   7.0mph /  11.3km/h 26% 0.00in /  0mm 619.0 W/m2
10:14 67.6 °F /  19.8 °C 32.5 °F /  0.3 °C 30.40in /  1029.3hPa North 2.0mph /  3.2km/h 7.0mph /  11.3km/h 27% 0.00in /  0mm 628.0 W/m2
10:20 68.0 °F /  20 °C 31.8 °F /  -0.1 °C 30.40in /  1029.3hPa North 2.0mph /  3.2km/h 8.0mph /  12.9km/h 26% 0.00in /  0mm 640.0 W/m2
10:26 68.4 °F /  20.2 °C 32.2 °F /  0.1 °C 30.40in /  1029.3hPa NNW 4.9mph /  7.9km/h 9.0mph /  14.5km/h 26% 0.00in /  0mm 645.0 W/m2
10:32 68.4 °F /  20.2 °C 32.2 °F /  0.1 °C 30.39in /  1029hPa Calm   7.0mph /  11.3km/h 26% 0.00in /  0mm 654.0 W/m2
10:38 68.4 °F /  20.2 °C 32.2 °F /  0.1 °C 30.39in /  1029hPa West 2.0mph /  3.2km/h 6.0mph /  9.7km/h 26% 0.00in /  0mm 661.0 W/m2
10:44 68.7 °F /  20.4 °C 31.5 °F /  -0.3 °C 30.39in /  1029hPa NNW 2.9mph /  4.7km/h 6.0mph /  9.7km/h 25% 0.00in /  0mm 668.0 W/m2
10:51 68.7 °F /  20.4 °C 31.5 °F /  -0.3 °C 30.38in /  1028.7hPa NW 4.0mph /  6.4km/h 7.0mph /  11.3km/h 25% 0.00in /  0mm 675.0 W/m2
10:57 69.1 °F /  20.6 °C 32.7 °F /  0.4 °C 30.38in /  1028.7hPa Calm   3.0mph /  4.8km/h 26% 0.00in /  0mm 679.0 W/m2
11:03 69.3 °F /  20.7 °C 32.0 °F /  0 °C 30.38in /  1028.7hPa North 6.0mph /  9.7km/h 7.0mph /  11.3km/h 25% 0.00in /  0mm 684.0 W/m2
11:09 69.1 °F /  20.6 °C 30.7 °F /  -0.7 °C 30.38in /  1028.7hPa NW 6.9mph /  11.1km/h 10.0mph /  16.1km/h 24% 0.00in /  0mm 691.0 W/m2
11:15 69.3 °F /  20.7 °C 30.9 °F /  -0.6 °C 30.37in /  1028.3hPa NNW 11.0mph /  17.7km/h 12.0mph /  19.3km/h 24% 0.00in /  0mm 691.0 W/m2
11:21 69.1 °F /  20.6 °C 30.7 °F /  -0.7 °C 30.37in /  1028.3hPa NNW 2.9mph /  4.7km/h 7.0mph /  11.3km/h 24% 0.00in /  0mm 696.0 W/m2
11:27 69.3 °F /  20.7 °C 30.9 °F /  -0.6 °C 30.36in /  1028hPa NNW 2.9mph /  4.7km/h 8.0mph /  12.9km/h 24% 0.00in /  0mm 696.0 W/m2
11:33 70.0 °F /  21.1 °C 30.6 °F /  -0.8 °C 30.36in /  1028hPa NNW 6.9mph /  11.1km/h 11.0mph /  17.7km/h 23% 0.00in /  0mm 703.0 W/m2
11:40 70.0 °F /  21.1 °C 31.5 °F /  -0.3 °C 30.36in /  1028hPa NNW 4.9mph /  7.9km/h 7.0mph /  11.3km/h 24% 0.00in /  0mm 703.0 W/m2
11:46 70.0 °F /  21.1 °C 30.6 °F /  -0.8 °C 30.36in /  1028hPa NE 6.9mph /  11.1km/h 11.0mph /  17.7km/h 23% 0.00in /  0mm 700.0 W/m2
11:52 70.0 °F /  21.1 °C 30.6 °F /  -0.8 °C 30.35in /  1027.7hPa NW 2.0mph /  3.2km/h 6.0mph /  9.7km/h 23% 0.00in /  0mm 698.0 W/m2
11:58 70.3 °F /  21.3 °C 30.7 °F /  -0.7 °C 30.35in /  1027.7hPa Calm   5.0mph /  8km/h 23% 0.00in /  0mm 701.0 W/m2
12:04 70.5 °F /  21.4 °C 29.8 °F /  -1.2 °C 30.35in /  1027.7hPa Calm   10.0mph /  16.1km/h 22% 0.00in /  0mm 700.0 W/m2
12:10 70.7 °F /  21.5 °C 30.0 °F /  -1.1 °C 30.33in /  1027hPa Calm   7.0mph /  11.3km/h 22% 0.00in /  0mm 696.0 W/m2
12:16 70.9 °F /  21.6 °C 28.9 °F /  -1.7 °C 30.33in /  1027hPa NNE 4.0mph /  6.4km/h 16.0mph /  25.7km/h 21% 0.00in /  0mm 694.0 W/m2
12:22 70.9 °F /  21.6 °C 28.9 °F /  -1.7 °C 30.33in /  1027hPa Calm   3.0mph /  4.8km/h 21% 0.00in /  0mm 691.0 W/m2
12:28 71.2 °F /  21.8 °C 29.3 °F /  -1.5 °C 30.33in /  1027hPa NW 6.9mph /  11.1km/h 11.0mph /  17.7km/h 21% 0.00in /  0mm 687.0 W/m2
12:34 71.2 °F /  21.8 °C 29.3 °F /  -1.5 °C 30.32in /  1026.6hPa WNW 6.9mph /  11.1km/h 9.0mph /  14.5km/h 21% 0.00in /  0mm 682.0 W/m2
12:41 71.2 °F /  21.8 °C 29.3 °F /  -1.5 °C 30.31in /  1026.3hPa NNW 8.9mph /  14.3km/h 10.0mph /  16.1km/h 21% 0.00in /  0mm 677.0 W/m2
12:47 71.2 °F /  21.8 °C 29.3 °F /  -1.5 °C 30.31in /  1026.3hPa NNW 2.0mph /  3.2km/h 12.0mph /  19.3km/h 21% 0.00in /  0mm 673.0 W/m2
12:53 71.2 °F /  21.8 °C 29.3 °F /  -1.5 °C 30.31in /  1026.3hPa NNW 8.1mph /  13km/h 12.0mph /  19.3km/h 21% 0.00in /  0mm 663.0 W/m2
12:59 71.1 °F /  21.7 °C 29.1 °F /  -1.6 °C 30.31in /  1026.3hPa NNW 2.9mph /  4.7km/h 7.0mph /  11.3km/h 21% 0.00in /  0mm 650.0 W/m2
13:05 71.2 °F /  21.8 °C 29.3 °F /  -1.5 °C 30.30in /  1026hPa NNW 2.9mph /  4.7km/h 13.0mph /  20.9km/h 21% 0.00in /  0mm 645.0 W/m2
13:11 71.8 °F /  22.1 °C 29.7 °F /  -1.3 °C 30.30in /  1026hPa North 8.9mph /  14.3km/h 9.0mph /  14.5km/h 21% 0.00in /  0mm 631.0 W/m2
13:17 71.8 °F /  22.1 °C 29.7 °F /  -1.3 °C 30.30in /  1026hPa NNE 4.0mph /  6.4km/h 7.0mph /  11.3km/h 21% 0.00in /  0mm 626.0 W/m2
13:24 71.4 °F /  21.9 °C 30.6 °F /  -0.8 °C 30.30in /  1026hPa North 0.9mph /  1.4km/h 9.0mph /  14.5km/h 22% 0.00in /  0mm 617.0 W/m2
13:30 71.8 °F /  22.1 °C 30.9 °F /  -0.6 °C 30.30in /  1026hPa NNW 4.0mph /  6.4km/h 7.0mph /  11.3km/h 22% 0.00in /  0mm 603.0 W/m2
13:36 71.8 °F /  22.1 °C 29.7 °F /  -1.3 °C 30.30in /  1026hPa NW 2.0mph /  3.2km/h 15.0mph /  24.1km/h 21% 0.00in /  0mm 591.0 W/m2
13:42 71.8 °F /  22.1 °C 30.9 °F /  -0.6 °C 30.30in /  1026hPa NNW 0.9mph /  1.4km/h 4.0mph /  6.4km/h 22% 0.00in /  0mm 571.0 W/m2
13:48 72.1 °F /  22.3 °C 31.1 °F /  -0.5 °C 30.30in /  1026hPa WNW 2.0mph /  3.2km/h 9.0mph /  14.5km/h 22% 0.00in /  0mm 566.0 W/m2
14:00 72.1 °F /  22.3 °C 30.0 °F /  -1.1 °C 30.29in /  1025.6hPa NNW 4.0mph /  6.4km/h 15.0mph /  24.1km/h 21% 0.00in /  0mm 540.0 W/m2
14:07 71.4 °F /  21.9 °C 29.5 °F /  -1.4 °C 30.29in /  1025.6hPa NNW 4.9mph /  7.9km/h 12.0mph /  19.3km/h 21% 0.00in /  0mm 527.0 W/m2
14:13 71.2 °F /  21.8 °C 29.3 °F /  -1.5 °C 30.28in /  1025.3hPa NNW 8.1mph /  13km/h 11.0mph /  17.7km/h 21% 0.00in /  0mm 512.0 W/m2
14:19 71.2 °F /  21.8 °C 30.4 °F /  -0.9 °C 30.28in /  1025.3hPa NNW 4.0mph /  6.4km/h 8.0mph /  12.9km/h 22% 0.00in /  0mm 497.0 W/m2
14:25 71.2 °F /  21.8 °C 30.4 °F /  -0.9 °C 30.28in /  1025.3hPa NNE 4.9mph /  7.9km/h 11.0mph /  17.7km/h 22% 0.00in /  0mm 482.0 W/m2
14:31 71.2 °F /  21.8 °C 30.4 °F /  -0.9 °C 30.28in /  1025.3hPa North 0.9mph /  1.4km/h 7.0mph /  11.3km/h 22% 0.00in /  0mm 464.0 W/m2
14:40 71.4 °F /  21.9 °C 30.6 °F /  -0.8 °C 30.28in /  1025.3hPa North 4.0mph /  6.4km/h 9.0mph /  14.5km/h 22% 0.00in /  0mm 445.0 W/m2
14:46 71.2 °F /  21.8 °C 30.4 °F /  -0.9 °C 30.28in /  1025.3hPa NNW 2.9mph /  4.7km/h 8.0mph /  12.9km/h 22% 0.00in /  0mm 429.0 W/m2
14:52 71.1 °F /  21.7 °C 30.2 °F /  -1 °C 30.27in /  1024.9hPa NNE 2.9mph /  4.7km/h 9.0mph /  14.5km/h 22% 0.00in /  0mm 410.0 W/m2
14:58 70.7 °F /  21.5 °C 30.0 °F /  -1.1 °C 30.27in /  1024.9hPa NE 6.0mph /  9.7km/h 9.0mph /  14.5km/h 22% 0.00in /  0mm 388.0 W/m2
15:04 70.5 °F /  21.4 °C 29.8 °F /  -1.2 °C 30.27in /  1024.9hPa NNW 4.9mph /  7.9km/h 9.0mph /  14.5km/h 22% 0.00in /  0mm 369.0 W/m2
15:10 70.5 °F /  21.4 °C 29.8 °F /  -1.2 °C 30.26in /  1024.6hPa North 10.1mph /  16.3km/h 11.0mph /  17.7km/h 22% 0.00in /  0mm 353.0 W/m2
15:16 70.2 °F /  21.2 °C 30.6 °F /  -0.8 °C 30.26in /  1024.6hPa NNW 4.9mph /  7.9km/h 11.0mph /  17.7km/h 23% 0.00in /  0mm 330.0 W/m2
15:22 70.0 °F /  21.1 °C 30.6 °F /  -0.8 °C 30.26in /  1024.6hPa NW 2.9mph /  4.7km/h 17.0mph /  27.4km/h 23% 0.00in /  0mm 49.0 W/m2
15:28 69.6 °F /  20.9 °C 31.3 °F /  -0.4 °C 30.26in /  1024.6hPa NW 4.0mph /  6.4km/h 5.0mph /  8km/h 24% 0.00in /  0mm 44.0 W/m2
15:34 69.4 °F /  20.8 °C 31.1 °F /  -0.5 °C 30.27in /  1024.9hPa NW 4.9mph /  7.9km/h 10.0mph /  16.1km/h 24% 0.00in /  0mm 40.0 W/m2
15:41 69.3 °F /  20.7 °C 30.9 °F /  -0.6 °C 30.27in /  1024.9hPa North 2.9mph /  4.7km/h 7.0mph /  11.3km/h 24% 0.00in /  0mm 39.0 W/m2
15:47 69.1 °F /  20.6 °C 30.7 °F /  -0.7 °C 30.27in /  1024.9hPa NNW 0.9mph /  1.4km/h 11.0mph /  17.7km/h 24% 0.00in /  0mm 37.0 W/m2
15:53 68.7 °F /  20.4 °C 30.4 °F /  -0.9 °C 30.27in /  1024.9hPa NW 2.0mph /  3.2km/h 6.0mph /  9.7km/h 24% 0.00in /  0mm 35.0 W/m2
16:02 68.5 °F /  20.3 °C 30.4 °F /  -0.9 °C 30.27in /  1024.9hPa NNW 0.9mph /  1.4km/h 12.0mph /  19.3km/h 24% 0.00in /  0mm 28.0 W/m2
16:07 68.2 °F /  20.1 °C 31.1 °F /  -0.5 °C 30.27in /  1024.9hPa West 6.9mph /  11.1km/h 9.0mph /  14.5km/h 25% 0.00in /  0mm 25.0 W/m2
16:12 68.2 °F /  20.1 °C 31.1 °F /  -0.5 °C 30.27in /  1024.9hPa West 6.9mph /  11.1km/h 9.0mph /  14.5km/h 25% 0.00in /  0mm 25.0 W/m2
16:18 67.6 °F /  19.8 °C 31.5 °F /  -0.3 °C 30.28in /  1025.3hPa NNW 6.0mph /  9.7km/h 7.0mph /  11.3km/h 26% 0.00in /  0mm 23.0 W/m2
16:24 67.5 °F /  19.7 °C 31.5 °F /  -0.3 °C 30.28in /  1025.3hPa NNE 6.9mph /  11.1km/h 7.0mph /  11.3km/h 26% 0.00in /  0mm 21.0 W/m2
16:30 67.3 °F /  19.6 °C 30.2 °F /  -1 °C 30.28in /  1025.3hPa NW 2.9mph /  4.7km/h 9.0mph /  14.5km/h 25% 0.00in /  0mm 19.0 W/m2
16:36 67.1 °F /  19.5 °C 30.0 °F /  -1.1 °C 30.28in /  1025.3hPa North 2.9mph /  4.7km/h 9.0mph /  14.5km/h 25% 0.00in /  0mm 18.0 W/m2
16:42 66.7 °F /  19.3 °C 30.7 °F /  -0.7 °C 30.28in /  1025.3hPa WNW 2.0mph /  3.2km/h 8.0mph /  12.9km/h 26% 0.00in /  0mm 16.0 W/m2
16:48 66.6 °F /  19.2 °C 30.6 °F /  -0.8 °C 30.28in /  1025.3hPa NNE 2.9mph /  4.7km/h 9.0mph /  14.5km/h 26% 0.00in /  0mm 14.0 W/m2
16:54 66.4 °F /  19.1 °C 30.4 °F /  -0.9 °C 30.28in /  1025.3hPa North 2.9mph /  4.7km/h 7.0mph /  11.3km/h 26% 0.00in /  0mm 12.0 W/m2
17:01 66.0 °F /  18.9 °C 30.2 °F /  -1 °C 30.28in /  1025.3hPa NNW 2.0mph /  3.2km/h 6.0mph /  9.7km/h 26% 0.00in /  0mm 11.0 W/m2
17:08 65.8 °F /  18.8 °C 30.9 °F /  -0.6 °C 30.28in /  1025.3hPa NNW 4.0mph /  6.4km/h 8.0mph /  12.9km/h 27% 0.00in /  0mm 7.0 W/m2
17:13 65.5 °F /  18.6 °C 30.6 °F /  -0.8 °C 30.28in /  1025.3hPa NNW 6.9mph /  11.1km/h 7.0mph /  11.3km/h 27% 0.00in /  0mm 0.0 W/m2
17:19 65.1 °F /  18.4 °C 30.4 °F /  -0.9 °C 30.28in /  1025.3hPa NNW 2.0mph /  3.2km/h 7.0mph /  11.3km/h 27% 0.00in /  0mm 0.0 W/m2
17:25 64.8 °F /  18.2 °C 30.0 °F /  -1.1 °C 30.29in /  1025.6hPa North 2.0mph /  3.2km/h 4.0mph /  6.4km/h 27% 0.00in /  0mm 0.0 W/m2
17:31 64.6 °F /  18.1 °C 30.7 °F /  -0.7 °C 30.29in /  1025.6hPa NNW 2.9mph /  4.7km/h 5.0mph /  8km/h 28% 0.00in /  0mm 0.0 W/m2
17:37 64.0 °F /  17.8 °C 30.2 °F /  -1 °C 30.29in /  1025.6hPa NNE 2.0mph /  3.2km/h 4.0mph /  6.4km/h 28% 0.00in /  0mm 0.0 W/m2
17:43 63.7 °F /  17.6 °C 30.0 °F /  -1.1 °C 30.29in /  1025.6hPa North 4.9mph /  7.9km/h 5.0mph /  8km/h 28% 0.00in /  0mm 0.0 W/m2
17:49 63.3 °F /  17.4 °C 30.6 °F /  -0.8 °C 30.29in /  1025.6hPa NE 2.9mph /  4.7km/h 5.0mph /  8km/h 29% 0.00in /  0mm 0.0 W/m2
17:56 63.1 °F /  17.3 °C 29.5 °F /  -1.4 °C 30.29in /  1025.6hPa NNE 2.9mph /  4.7km/h 7.0mph /  11.3km/h 28% 0.00in /  0mm 0.0 W/m2
18:01 63.0 °F /  17.2 °C 29.3 °F /  -1.5 °C 30.29in /  1025.6hPa NNW 2.0mph /  3.2km/h 4.0mph /  6.4km/h 28% 0.00in /  0mm 0.0 W/m2
18:07 62.8 °F /  17.1 °C 29.1 °F /  -1.6 °C 30.29in /  1025.6hPa NNE 0.9mph /  1.4km/h 7.0mph /  11.3km/h 28% 0.00in /  0mm 0.0 W/m2
18:13 62.4 °F /  16.9 °C 29.7 °F /  -1.3 °C 30.29in /  1025.6hPa NE 2.0mph /  3.2km/h 4.0mph /  6.4km/h 29% 0.00in /  0mm 0.0 W/m2
18:19 61.9 °F /  16.6 °C 29.3 °F /  -1.5 °C 30.29in /  1025.6hPa ENE 2.0mph /  3.2km/h 5.0mph /  8km/h 29% 0.00in /  0mm 0.0 W/m2
18:27 61.3 °F /  16.3 °C 29.7 °F /  -1.3 °C 30.29in /  1025.6hPa NE 2.0mph /  3.2km/h 5.0mph /  8km/h 30% 0.00in /  0mm 0.0 W/m2
18:32 60.6 °F /  15.9 °C 29.8 °F /  -1.2 °C 30.29in /  1025.6hPa NE 2.0mph /  3.2km/h 4.0mph /  6.4km/h 31% 0.00in /  0mm 0.0 W/m2
18:45 59.2 °F /  15.1 °C 29.3 °F /  -1.5 °C 30.29in /  1025.6hPa Calm   3.0mph /  4.8km/h 32% 0.00in /  0mm 0.0 W/m2
18:54 58.5 °F /  14.7 °C 29.5 °F /  -1.4 °C 30.29in /  1025.6hPa ENE 0.9mph /  1.4km/h 2.0mph /  3.2km/h 33% 0.00in /  0mm 0.0 W/m2
18:59 57.7 °F /  14.3 °C 29.5 °F /  -1.4 °C 30.30in /  1026hPa ENE 0.9mph /  1.4km/h 3.0mph /  4.8km/h 34% 0.00in /  0mm 0.0 W/m2
19:05 57.0 °F /  13.9 °C 29.7 °F /  -1.3 °C 30.29in /  1025.6hPa Calm   3.0mph /  4.8km/h 35% 0.00in /  0mm 0.0 W/m2
19:14 56.5 °F /  13.6 °C 29.8 °F /  -1.2 °C 30.29in /  1025.6hPa Calm   3.0mph /  4.8km/h 36% 0.00in /  0mm 0.0 W/m2
19:19 56.1 °F /  13.4 °C 29.5 °F /  -1.4 °C 30.30in /  1026hPa Calm   1.0mph /  1.6km/h 36% 0.00in /  0mm 0.0 W/m2
19:25 55.8 °F /  13.2 °C 29.8 °F /  -1.2 °C 30.30in /  1026hPa East 0.9mph /  1.4km/h 2.0mph /  3.2km/h 37% 0.00in /  0mm 0.0 W/m2
19:33 55.6 °F /  13.1 °C 29.7 °F /  -1.3 °C 30.30in /  1026hPa Calm   3.0mph /  4.8km/h 37% 0.00in /  0mm 0.0 W/m2
19:39 55.0 °F /  12.8 °C 29.3 °F /  -1.5 °C 30.31in /  1026.3hPa Calm   1.0mph /  1.6km/h 37% 0.00in /  0mm 0.0 W/m2
19:45 54.7 °F /  12.6 °C 29.5 °F /  -1.4 °C 30.31in /  1026.3hPa ENE 2.0mph /  3.2km/h 2.0mph /  3.2km/h 38% 0.00in /  0mm 0.0 W/m2
19:54 54.7 °F /  12.6 °C 30.2 °F /  -1 °C 30.32in /  1026.6hPa ENE 0.9mph /  1.4km/h 1.0mph /  1.6km/h 39% 0.00in /  0mm 0.0 W/m2
19:59 54.3 °F /  12.4 °C 29.8 °F /  -1.2 °C 30.31in /  1026.3hPa Calm   2.0mph /  3.2km/h 39% 0.00in /  0mm 0.0 W/m2
20:05 54.1 °F /  12.3 °C 29.7 °F /  -1.3 °C 30.32in /  1026.6hPa East 0.9mph /  1.4km/h 2.0mph /  3.2km/h 39% 0.00in /  0mm 0.0 W/m2
20:10 54.0 °F /  12.2 °C 29.5 °F /  -1.4 °C 30.32in /  1026.6hPa Calm   1.0mph /  1.6km/h 39% 0.00in /  0mm 0.0 W/m2
20:20 53.6 °F /  12 °C 29.8 °F /  -1.2 °C 30.32in /  1026.6hPa Calm   1.0mph /  1.6km/h 40% 0.00in /  0mm 0.0 W/m2
20:26 53.2 °F /  11.8 °C 30.2 °F /  -1 °C 30.32in /  1026.6hPa Calm     41% 0.00in /  0mm 0.0 W/m2
20:34 53.1 °F /  11.7 °C 30.6 °F /  -0.8 °C 30.33in /  1027hPa Calm     42% 0.00in /  0mm 0.0 W/m2
20:41 52.5 °F /  11.4 °C 30.0 °F /  -1.1 °C 30.33in /  1027hPa Calm   1.0mph /  1.6km/h 42% 0.00in /  0mm 0.0 W/m2
20:48 52.2 °F /  11.2 °C 29.8 °F /  -1.2 °C 30.33in /  1027hPa Calm     42% 0.00in /  0mm 0.0 W/m2
20:54 51.6 °F /  10.9 °C 29.8 °F /  -1.2 °C 30.33in /  1027hPa Calm     43% 0.00in /  0mm 0.0 W/m2
21:00 51.6 °F /  10.9 °C 29.8 °F /  -1.2 °C 30.33in /  1027hPa Calm     43% 0.00in /  0mm 0.0 W/m2
21:06 51.4 °F /  10.8 °C 29.7 °F /  -1.3 °C 30.33in /  1027hPa Calm   1.0mph /  1.6km/h 43% 0.00in /  0mm 0.0 W/m2
21:12 51.4 °F /  10.8 °C 29.7 °F /  -1.3 °C 30.33in /  1027hPa Calm   1.0mph /  1.6km/h 43% 0.00in /  0mm 0.0 W/m2
21:18 51.4 °F /  10.8 °C 29.7 °F /  -1.3 °C 30.34in /  1027.3hPa Calm   1.0mph /  1.6km/h 43% 0.00in /  0mm 0.0 W/m2
21:24 51.3 °F /  10.7 °C 30.0 °F /  -1.1 °C 30.34in /  1027.3hPa Calm     44% 0.00in /  0mm 0.0 W/m2
21:30 51.1 °F /  10.6 °C 29.8 °F /  -1.2 °C 30.34in /  1027.3hPa Calm     44% 0.00in /  0mm 0.0 W/m2
21:38 50.7 °F /  10.4 °C 30.2 °F /  -1 °C 30.34in /  1027.3hPa NE 2.9mph /  4.7km/h 3.0mph /  4.8km/h 45% 0.00in /  0mm 0.0 W/m2
21:44 50.5 °F /  10.3 °C 30.0 °F /  -1.1 °C 30.34in /  1027.3hPa ENE 0.9mph /  1.4km/h 1.0mph /  1.6km/h 45% 0.00in /  0mm 0.0 W/m2
21:50 50.5 °F /  10.3 °C 30.0 °F /  -1.1 °C 30.34in /  1027.3hPa Calm     45% 0.00in /  0mm 0.0 W/m2
21:57 50.4 °F /  10.2 °C 29.8 °F /  -1.2 °C 30.34in /  1027.3hPa Calm     45% 0.00in /  0mm 0.0 W/m2
22:03 50.2 °F /  10.1 °C 30.2 °F /  -1 °C 30.34in /  1027.3hPa Calm     46% 0.00in /  0mm 0.0 W/m2
22:09 50.0 °F /  10 °C 30.0 °F /  -1.1 °C 30.35in /  1027.7hPa Calm     46% 0.00in /  0mm 0.0 W/m2
22:15 49.6 °F /  9.8 °C 30.2 °F /  -1 °C 30.35in /  1027.7hPa Calm     47% 0.00in /  0mm 0.0 W/m2
22:21 49.5 °F /  9.7 °C 30.0 °F /  -1.1 °C 30.35in /  1027.7hPa Calm   1.0mph /  1.6km/h 47% 0.00in /  0mm 0.0 W/m2
22:27 49.3 °F /  9.6 °C 30.4 °F /  -0.9 °C 30.35in /  1027.7hPa Calm     48% 0.00in /  0mm 0.0 W/m2
22:34 48.9 °F /  9.4 °C 30.0 °F /  -1.1 °C 30.35in /  1027.7hPa Calm   1.0mph /  1.6km/h 48% 0.00in /  0mm 0.0 W/m2
22:40 48.7 °F /  9.3 °C 29.8 °F /  -1.2 °C 30.35in /  1027.7hPa Calm     48% 0.00in /  0mm 0.0 W/m2
22:46 48.6 °F /  9.2 °C 30.2 °F /  -1 °C 30.35in /  1027.7hPa Calm     49% 0.00in /  0mm 0.0 W/m2
22:53 48.2 °F /  9 °C 30.0 °F /  -1.1 °C 30.36in /  1028hPa Calm     49% 0.00in /  0mm 0.0 W/m2
22:58 47.8 °F /  8.8 °C 29.7 °F /  -1.3 °C 30.36in /  1028hPa Calm     49% 0.00in /  0mm 0.0 W/m2
23:04 47.7 °F /  8.7 °C 29.5 °F /  -1.4 °C 30.36in /  1028hPa Calm     49% 0.00in /  0mm 0.0 W/m2
23:10 47.5 °F /  8.6 °C 29.8 °F /  -1.2 °C 30.36in /  1028hPa Calm   1.0mph /  1.6km/h 50% 0.00in /  0mm 0.0 W/m2
23:16 47.1 °F /  8.4 °C 29.5 °F /  -1.4 °C 30.36in /  1028hPa Calm     50% 0.00in /  0mm 0.0 W/m2
23:23 46.9 °F /  8.3 °C 29.8 °F /  -1.2 °C 30.36in /  1028hPa Calm     51% 0.00in /  0mm 0.0 W/m2
23:29 46.8 °F /  8.2 °C 29.7 °F /  -1.3 °C 30.36in /  1028hPa Calm     51% 0.00in /  0mm 0.0 W/m2
23:35 46.6 °F /  8.1 °C 29.5 °F /  -1.4 °C 30.36in /  1028hPa Calm   1.0mph /  1.6km/h 51% 0.00in /  0mm 0.0 W/m2
23:41 46.4 °F /  8 °C 29.7 °F /  -1.3 °C 30.36in /  1028hPa Calm   1.0mph /  1.6km/h 52% 0.00in /  0mm 0.0 W/m2
23:47 46.2 °F /  7.9 °C 29.5 °F /  -1.4 °C 30.37in /  1028.3hPa Calm     52% 0.00in /  0mm 0.0 W/m2
23:53 46.4 °F /  8 °C 29.7 °F /  -1.3 °C 30.37in /  1028.3hPa Calm     52% 0.00in /  0mm 0.0 W/m2
23:59 46.2 °F /  7.9 °C 29.5 °F /  -1.4 °C 30.37in /  1028.3hPa Calm     52% 0.00in /  0mm 0.0 W/m2
Olympia, Windhoek, Namibia
Compliments of Weather Underground - 3 mb